createdAt,value
2023-04-16T00:00:40.018Z,64.62
2023-04-16T00:03:06.455Z,65.02
2023-04-16T00:05:32.852Z,64.73
2023-04-16T00:07:59.141Z,65.08
2023-04-16T00:10:25.407Z,65.11
2023-04-16T00:12:51.697Z,64.94
2023-04-16T00:15:17.948Z,64.75
2023-04-16T00:17:44.288Z,64.86
2023-04-16T00:20:10.589Z,64.58
2023-04-16T00:22:36.848Z,64.95
2023-04-16T00:25:03.161Z,64.65
2023-04-16T00:27:29.409Z,65.26
2023-04-16T00:29:55.670Z,65.17
2023-04-16T00:32:21.983Z,65.22
2023-04-16T00:34:48.251Z,64.94
2023-04-16T00:37:14.488Z,65.49
2023-04-16T00:39:40.745Z,65.25
2023-04-16T00:42:07.005Z,65.15
2023-04-16T00:44:33.275Z,65.12
2023-04-16T00:46:59.517Z,64.98
2023-04-16T00:49:25.815Z,65.19
2023-04-16T00:51:52.089Z,65.23
2023-04-16T00:54:18.355Z,65.08
2023-04-16T00:56:44.649Z,64.87
2023-04-16T00:59:11.105Z,64.86
2023-04-16T01:01:37.503Z,64.81
2023-04-16T01:04:03.898Z,65.64
2023-04-16T01:06:30.300Z,65.32
2023-04-16T01:08:56.560Z,65.47
2023-04-16T01:11:22.813Z,65.39
2023-04-16T01:13:49.078Z,65.36
2023-04-16T01:16:15.370Z,65.27
2023-04-16T01:18:41.647Z,64.78
2023-04-16T01:21:07.992Z,64.56
2023-04-16T01:23:34.241Z,64.83
2023-04-16T01:26:00.506Z,64.50
2023-04-16T01:28:26.778Z,64.71
2023-04-16T01:30:53.043Z,64.60
2023-04-16T01:33:19.303Z,64.62
2023-04-16T01:35:45.620Z,64.74
2023-04-16T01:38:11.907Z,64.44
2023-04-16T01:40:38.172Z,64.50
2023-04-16T01:43:04.414Z,64.51
2023-04-16T01:45:30.679Z,64.36
2023-04-16T01:47:56.960Z,65.22
2023-04-16T01:50:23.258Z,65.05
2023-04-16T01:52:49.539Z,64.76
2023-04-16T01:55:15.844Z,64.34
2023-04-16T01:57:42.096Z,64.51
2023-04-16T02:00:08.357Z,65.12
2023-04-16T02:02:34.720Z,65.12
2023-04-16T02:05:01.149Z,65.39
2023-04-16T02:07:27.407Z,65.31
2023-04-16T02:09:53.646Z,65.43
2023-04-16T02:12:19.898Z,65.50
2023-04-16T02:14:46.152Z,65.77
2023-04-16T02:17:12.435Z,65.35
2023-04-16T02:19:38.666Z,65.23
2023-04-16T02:22:04.936Z,65.03
2023-04-16T02:24:31.221Z,65.05
2023-04-16T02:26:57.487Z,65.31
2023-04-16T02:29:23.744Z,65.07
2023-04-16T02:31:50.115Z,65.26
2023-04-16T02:34:16.392Z,65.04
2023-04-16T02:36:42.671Z,65.35
2023-04-16T02:39:09.167Z,65.22
2023-04-16T02:41:35.694Z,65.95
2023-04-16T02:44:01.948Z,65.44
2023-04-16T02:46:28.243Z,65.14
2023-04-16T02:48:54.527Z,65.64
2023-04-16T02:51:20.784Z,65.54
2023-04-16T02:53:47.065Z,65.32
2023-04-16T02:56:13.330Z,65.30
2023-04-16T02:58:39.600Z,65.54
2023-04-16T03:01:05.868Z,65.70
2023-04-16T03:03:32.123Z,65.46
2023-04-16T03:05:58.390Z,65.17
2023-04-16T03:08:24.630Z,65.01
2023-04-16T03:10:50.874Z,65.44
2023-04-16T03:13:17.145Z,65.06
2023-04-16T03:15:43.406Z,65.18
2023-04-16T03:18:09.695Z,65.89
2023-04-16T03:20:35.963Z,65.92
2023-04-16T03:23:02.235Z,65.39
2023-04-16T03:25:28.498Z,65.67
2023-04-16T03:27:54.812Z,65.95
2023-04-16T03:30:21.069Z,65.54
2023-04-16T03:32:47.413Z,66.10
2023-04-16T03:35:13.708Z,65.83
2023-04-16T03:37:39.976Z,65.72
2023-04-16T03:40:06.237Z,65.34
2023-04-16T03:42:32.545Z,65.24
2023-04-16T03:44:58.815Z,65.71
2023-04-16T03:47:25.127Z,65.27
2023-04-16T03:49:51.410Z,65.17
2023-04-16T03:52:17.710Z,65.42
2023-04-16T03:54:43.981Z,65.27
2023-04-16T03:57:10.243Z,65.72
2023-04-16T03:59:36.501Z,66.00
2023-04-16T04:02:02.890Z,65.96
2023-04-16T04:04:29.349Z,66.17
2023-04-16T04:06:55.808Z,66.50
2023-04-16T04:09:22.087Z,65.91
2023-04-16T04:11:48.403Z,66.32
2023-04-16T04:14:14.670Z,65.89
2023-04-16T04:16:41.101Z,66.44
2023-04-16T04:19:07.828Z,66.29
2023-04-16T04:21:34.266Z,66.04
2023-04-16T04:24:00.551Z,66.41
2023-04-16T04:26:26.888Z,65.60
2023-04-16T04:28:53.196Z,66.09
2023-04-16T04:31:19.521Z,65.57
2023-04-16T04:33:45.800Z,65.53
2023-04-16T04:36:12.141Z,65.74
2023-04-16T04:38:38.400Z,65.57
2023-04-16T04:41:04.703Z,66.18
2023-04-16T04:43:30.992Z,66.51
2023-04-16T04:45:57.304Z,66.66
2023-04-16T04:48:23.645Z,66.26
2023-04-16T04:50:49.909Z,65.95
2023-04-16T04:53:16.193Z,66.40
2023-04-16T04:55:42.446Z,65.95
2023-04-16T04:58:08.717Z,66.10
2023-04-16T05:00:34.975Z,66.20
2023-04-16T05:03:01.319Z,66.77
2023-04-16T05:05:27.775Z,66.98
2023-04-16T05:07:54.088Z,66.83
2023-04-16T05:10:20.342Z,66.86
2023-04-16T05:12:48.224Z,66.22
2023-04-16T05:15:15.236Z,67.01
2023-04-16T05:17:41.565Z,66.58
2023-04-16T05:20:07.835Z,66.33
2023-04-16T05:22:34.085Z,66.77
2023-04-16T05:25:00.337Z,66.74
2023-04-16T05:27:26.605Z,67.18
2023-04-16T05:29:52.863Z,67.15
2023-04-16T05:32:19.227Z,67.06
2023-04-16T05:34:45.519Z,67.12
2023-04-16T05:37:11.802Z,67.16
2023-04-16T05:39:38.044Z,67.38
2023-04-16T05:42:04.295Z,67.04
2023-04-16T05:44:30.556Z,66.67
2023-04-16T05:46:56.820Z,66.16
2023-04-16T05:49:23.065Z,66.42
2023-04-16T05:51:50.834Z,66.46
2023-04-16T05:54:17.381Z,67.11
2023-04-16T05:56:43.638Z,66.97
2023-04-16T05:59:10.188Z,66.80
2023-04-16T06:01:36.632Z,67.09
2023-04-16T06:04:03.187Z,66.98
2023-04-16T06:06:29.563Z,66.82
2023-04-16T06:08:55.842Z,66.63
2023-04-16T06:11:22.113Z,66.62
2023-04-16T06:13:48.370Z,66.95
2023-04-16T06:16:14.799Z,67.25
2023-04-16T06:18:41.087Z,67.01
2023-04-16T06:21:07.361Z,66.78
2023-04-16T06:23:33.652Z,67.41
2023-04-16T06:25:59.928Z,66.81
2023-04-16T06:28:26.202Z,67.13
2023-04-16T06:30:52.457Z,66.90
2023-04-16T06:33:18.713Z,66.90
2023-04-16T06:35:44.978Z,67.02
2023-04-16T06:38:11.297Z,67.34
2023-04-16T06:40:37.569Z,67.44
2023-04-16T06:43:03.855Z,67.24
2023-04-16T06:45:30.124Z,66.90
2023-04-16T06:47:56.416Z,66.90
2023-04-16T06:50:22.700Z,67.32
2023-04-16T06:52:48.969Z,67.42
2023-04-16T06:55:15.232Z,67.33
2023-04-16T06:57:41.490Z,66.98
2023-04-16T07:00:07.746Z,66.55
2023-04-16T07:02:34.137Z,66.86
2023-04-16T07:05:00.524Z,67.25
2023-04-16T07:07:26.811Z,67.15
2023-04-16T07:09:53.090Z,67.51
2023-04-16T07:12:20.793Z,66.74
2023-04-16T07:14:48.686Z,67.36
2023-04-16T07:17:14.944Z,67.06
2023-04-16T07:19:41.204Z,66.74
2023-04-16T07:22:07.488Z,67.08
2023-04-16T07:24:33.784Z,67.01
2023-04-16T07:27:00.075Z,67.09
2023-04-16T07:29:26.394Z,66.63
2023-04-16T07:31:52.709Z,67.20
2023-04-16T07:34:19.001Z,67.10
2023-04-16T07:36:45.267Z,66.95
2023-04-16T07:39:11.835Z,66.89
2023-04-16T07:41:38.355Z,66.33
2023-04-16T07:44:04.599Z,66.11
2023-04-16T07:46:39.758Z,65.69
2023-04-16T07:49:12.909Z,66.29
2023-04-16T07:51:39.168Z,65.45
2023-04-16T07:54:05.558Z,66.14
2023-04-16T07:56:31.879Z,65.71
2023-04-16T07:59:02.852Z,65.42
2023-04-16T08:01:34.494Z,66.07
2023-04-16T08:04:01.013Z,65.66
2023-04-16T08:06:27.379Z,65.39
2023-04-16T08:08:53.661Z,66.03
2023-04-16T08:11:19.936Z,65.62
2023-04-16T08:13:46.186Z,65.31
2023-04-16T08:16:12.483Z,65.15
2023-04-16T08:18:38.773Z,65.81
2023-04-16T08:21:05.052Z,65.15
2023-04-16T08:23:31.328Z,64.82
2023-04-16T08:25:57.607Z,65.20
2023-04-16T08:28:23.909Z,65.16
2023-04-16T08:30:50.180Z,64.79
2023-04-16T08:33:16.489Z,63.91
2023-04-16T08:35:42.794Z,63.66
2023-04-16T08:38:09.063Z,64.14
2023-04-16T08:40:35.321Z,64.62
2023-04-16T08:43:01.571Z,65.20
2023-04-16T08:45:27.813Z,64.20
2023-04-16T08:47:54.154Z,65.04
2023-04-16T08:50:20.627Z,63.94
2023-04-16T08:52:46.946Z,64.12
2023-04-16T08:55:13.262Z,63.77
2023-04-16T08:57:39.511Z,63.92
2023-04-16T09:00:05.783Z,63.77
2023-04-16T09:02:32.154Z,63.69
2023-04-16T09:04:58.691Z,63.70
2023-04-16T09:07:25.031Z,63.51
2023-04-16T09:09:51.265Z,63.01
2023-04-16T09:12:17.526Z,63.29
2023-04-16T09:14:43.818Z,63.13
2023-04-16T09:17:10.073Z,62.75
2023-04-16T09:19:36.329Z,62.87
2023-04-16T09:22:02.594Z,63.22
2023-04-16T09:24:28.879Z,62.93
2023-04-16T09:26:55.217Z,63.49
2023-04-16T09:29:21.528Z,63.48
2023-04-16T09:31:47.854Z,63.32
2023-04-16T09:34:14.171Z,63.63
2023-04-16T09:36:40.468Z,63.37
2023-04-16T09:39:06.729Z,63.65
2023-04-16T09:41:33.047Z,63.03
2023-04-16T09:43:59.328Z,63.14
2023-04-16T09:46:25.633Z,63.30
2023-04-16T09:48:51.941Z,62.69
2023-04-16T09:51:18.205Z,62.71
2023-04-16T09:53:44.482Z,62.36
2023-04-16T09:56:10.741Z,62.06
2023-04-16T09:58:37.026Z,61.98
2023-04-16T10:01:03.346Z,62.49
2023-04-16T10:03:29.823Z,62.51
2023-04-16T10:05:56.381Z,61.95
2023-04-16T10:08:22.646Z,61.71
2023-04-16T10:10:48.908Z,62.21
2023-04-16T10:13:15.179Z,62.75
2023-04-16T10:15:41.421Z,61.87
2023-04-16T10:18:07.758Z,62.20
2023-04-16T10:20:34.078Z,61.72
2023-04-16T10:23:00.336Z,62.35
2023-04-16T10:25:26.590Z,62.13
2023-04-16T10:27:52.855Z,61.96
2023-04-16T10:30:19.105Z,62.00
2023-04-16T10:32:45.470Z,61.72
2023-04-16T10:35:11.778Z,62.27
2023-04-16T10:37:38.032Z,62.17
2023-04-16T10:40:04.292Z,61.71
2023-04-16T10:42:30.559Z,61.65
2023-04-16T10:44:56.820Z,62.11
2023-04-16T10:47:23.149Z,61.94
2023-04-16T10:49:49.404Z,62.10
2023-04-16T10:52:15.698Z,62.23
2023-04-16T10:54:41.989Z,61.42
2023-04-16T10:57:08.251Z,61.61
2023-04-16T10:59:34.528Z,59.97
2023-04-16T11:02:00.884Z,62.49
2023-04-16T11:04:27.315Z,60.72
2023-04-16T11:06:53.698Z,60.92
2023-04-16T11:09:19.955Z,61.73
2023-04-16T11:11:46.233Z,61.61
2023-04-16T11:14:12.506Z,61.23
2023-04-16T11:16:38.753Z,61.46
2023-04-16T11:19:05.019Z,61.38
2023-04-16T11:21:31.263Z,60.76
2023-04-16T11:23:57.645Z,60.54
2023-04-16T11:26:23.901Z,60.55
2023-04-16T11:28:50.195Z,60.24
2023-04-16T11:31:16.529Z,60.13
2023-04-16T11:33:42.841Z,60.64
2023-04-16T11:36:09.098Z,60.71
2023-04-16T11:38:35.350Z,61.01
2023-04-16T11:41:01.602Z,60.40
2023-04-16T11:43:27.873Z,60.62
2023-04-16T11:45:54.142Z,61.78
2023-04-16T11:48:20.395Z,61.57
2023-04-16T11:50:46.666Z,61.29
2023-04-16T11:53:12.930Z,60.26
2023-04-16T11:55:39.215Z,60.54
2023-04-16T11:58:05.496Z,59.58
2023-04-16T12:00:31.785Z,58.72
2023-04-16T12:02:58.234Z,56.39
2023-04-16T12:05:24.708Z,56.51
2023-04-16T12:07:50.990Z,56.03
2023-04-16T12:10:17.302Z,57.70
2023-04-16T12:12:43.595Z,55.86
2023-04-16T12:15:09.891Z,55.07
2023-04-16T12:17:36.220Z,54.94
2023-04-16T12:20:02.536Z,55.44
2023-04-16T12:22:28.772Z,55.53
2023-04-16T12:24:55.039Z,54.97
2023-04-16T12:27:21.273Z,52.37
2023-04-16T12:29:47.536Z,53.44
2023-04-16T12:32:13.804Z,53.25
2023-04-16T12:34:48.354Z,52.96
2023-04-16T12:37:17.433Z,53.47
2023-04-16T12:39:43.864Z,53.67
2023-04-16T12:42:10.153Z,54.53
2023-04-16T12:44:36.408Z,54.42
2023-04-16T12:47:02.670Z,53.65
2023-04-16T12:49:28.959Z,53.39
2023-04-16T12:51:55.229Z,53.34
2023-04-16T12:54:21.514Z,53.34
2023-04-16T12:56:47.764Z,55.71
2023-04-16T12:59:14.063Z,56.67
2023-04-16T13:01:40.407Z,57.20
2023-04-16T13:04:06.779Z,57.68
2023-04-16T13:06:33.112Z,58.02
2023-04-16T13:08:59.399Z,57.81
2023-04-16T13:11:25.677Z,57.60
2023-04-16T13:13:51.942Z,57.49
2023-04-16T13:16:18.271Z,57.62
2023-04-16T13:18:44.545Z,58.86
2023-04-16T13:21:10.781Z,58.66
2023-04-16T13:23:37.030Z,58.22
2023-04-16T13:26:03.291Z,59.22
2023-04-16T13:28:29.547Z,59.03
2023-04-16T13:30:55.819Z,59.48
2023-04-16T13:33:22.109Z,59.26
2023-04-16T13:35:48.356Z,59.19
2023-04-16T13:38:14.632Z,59.11
2023-04-16T13:40:40.896Z,60.18
2023-04-16T13:43:07.889Z,59.30
2023-04-16T13:45:34.189Z,59.03
2023-04-16T13:48:00.485Z,58.46
2023-04-16T13:50:26.784Z,58.55
2023-04-16T13:52:53.065Z,58.71
2023-04-16T13:55:19.325Z,59.13
2023-04-16T13:57:45.564Z,58.58
2023-04-16T14:00:13.207Z,58.55
2023-04-16T14:02:39.830Z,58.81
2023-04-16T14:05:06.244Z,58.66
2023-04-16T14:07:32.508Z,58.21
2023-04-16T14:09:58.781Z,57.64
2023-04-16T14:12:25.137Z,58.44
2023-04-16T14:14:51.399Z,57.28
2023-04-16T14:17:17.671Z,57.24
2023-04-16T14:19:43.949Z,57.02
2023-04-16T14:22:10.207Z,57.36
2023-04-16T14:24:36.471Z,57.17
2023-04-16T14:27:02.731Z,56.43
2023-04-16T14:29:28.998Z,57.07
2023-04-16T14:31:55.324Z,56.34
2023-04-16T14:34:21.623Z,55.40
2023-04-16T14:36:47.929Z,55.13
2023-04-16T14:39:14.185Z,55.29
2023-04-16T14:41:40.490Z,56.26
2023-04-16T14:44:06.752Z,55.39
2023-04-16T14:46:33.020Z,55.27
2023-04-16T14:48:59.281Z,56.07
2023-04-16T14:51:25.546Z,55.73
2023-04-16T14:53:51.824Z,55.67
2023-04-16T14:56:18.092Z,55.15
2023-04-16T14:58:44.366Z,55.32
2023-04-16T15:01:10.800Z,55.22
2023-04-16T15:03:37.264Z,55.31
2023-04-16T15:06:03.646Z,54.50
2023-04-16T15:08:29.903Z,55.15
2023-04-16T15:10:56.168Z,54.84
2023-04-16T15:13:22.433Z,54.04
2023-04-16T15:15:48.673Z,54.19
2023-04-16T15:18:14.936Z,54.20
2023-04-16T15:20:41.218Z,54.00
2023-04-16T15:23:07.472Z,54.65
2023-04-16T15:25:33.767Z,53.84
2023-04-16T15:28:00.033Z,53.86
2023-04-16T15:30:26.288Z,53.14
2023-04-16T15:32:52.781Z,52.97
2023-04-16T15:35:19.167Z,52.79
2023-04-16T15:37:45.430Z,53.30
2023-04-16T15:40:11.675Z,53.52
2023-04-16T15:42:37.934Z,53.71
2023-04-16T15:45:04.194Z,53.11
2023-04-16T15:47:30.545Z,53.01
2023-04-16T15:49:56.833Z,52.93
2023-04-16T15:52:23.088Z,52.92
2023-04-16T15:54:49.328Z,53.48
2023-04-16T15:57:15.610Z,52.65
2023-04-16T15:59:43.543Z,51.96
2023-04-16T16:02:12.467Z,52.16
2023-04-16T16:04:38.833Z,52.55
2023-04-16T16:07:05.117Z,51.33
2023-04-16T16:09:31.372Z,50.56
2023-04-16T16:11:57.637Z,51.08
2023-04-16T16:14:23.918Z,50.96
2023-04-16T16:16:50.197Z,51.13
2023-04-16T16:19:18.803Z,51.19
2023-04-16T16:21:45.070Z,51.24
2023-04-16T16:24:11.354Z,50.54
2023-04-16T16:26:37.617Z,52.02
2023-04-16T16:29:03.875Z,51.15
2023-04-16T16:31:30.203Z,51.80
2023-04-16T16:33:56.575Z,52.35
2023-04-16T16:36:22.840Z,52.06
2023-04-16T16:38:49.104Z,52.46
2023-04-16T16:41:15.381Z,52.41
2023-04-16T16:43:41.622Z,52.31
2023-04-16T16:46:07.873Z,53.24
2023-04-16T16:48:34.138Z,53.85
2023-04-16T16:51:00.399Z,53.02
2023-04-16T16:53:26.666Z,52.72
2023-04-16T16:55:52.971Z,52.60
2023-04-16T16:58:19.255Z,52.75
2023-04-16T17:00:45.567Z,53.23
2023-04-16T17:03:12.053Z,53.91
2023-04-16T17:05:38.454Z,53.49
2023-04-16T17:08:04.708Z,53.22
2023-04-16T17:10:30.966Z,52.27
2023-04-16T17:12:57.271Z,52.59
2023-04-16T17:15:23.547Z,52.42
2023-04-16T17:17:49.971Z,52.54
2023-04-16T17:20:16.338Z,52.83
2023-04-16T17:22:42.675Z,53.01
2023-04-16T17:25:09.020Z,53.25
2023-04-16T17:27:35.365Z,53.06
2023-04-16T17:30:01.626Z,53.34
2023-04-16T17:32:28.033Z,53.00
2023-04-16T17:34:54.324Z,52.35
2023-04-16T17:37:20.573Z,53.33
2023-04-16T17:39:46.855Z,52.91
2023-04-16T17:42:13.124Z,52.65
2023-04-16T17:44:39.385Z,52.98
2023-04-16T17:47:05.626Z,53.47
2023-04-16T17:49:31.896Z,53.59
2023-04-16T17:51:58.173Z,53.78
2023-04-16T17:54:24.448Z,53.75
2023-04-16T17:56:50.756Z,53.74
2023-04-16T17:59:17.029Z,53.69
2023-04-16T18:01:43.353Z,54.28
2023-04-16T18:04:09.895Z,54.07
2023-04-16T18:06:36.440Z,53.48
2023-04-16T18:09:02.762Z,53.84
2023-04-16T18:11:30.675Z,54.46
2023-04-16T18:13:57.517Z,55.04
2023-04-16T18:16:23.876Z,54.99
2023-04-16T18:18:50.236Z,54.75
2023-04-16T18:21:16.493Z,54.93
2023-04-16T18:23:42.784Z,54.44
2023-04-16T18:26:09.479Z,54.71
2023-04-16T18:28:37.269Z,54.47
2023-04-16T18:31:03.601Z,54.57
2023-04-16T18:33:49.974Z,54.93
2023-04-16T18:36:16.108Z,55.00
2023-04-16T18:38:57.037Z,55.43
2023-04-16T18:41:26.237Z,55.37
2023-04-16T18:43:52.534Z,55.00
2023-04-16T18:46:18.800Z,55.32
2023-04-16T18:48:45.148Z,55.40
2023-04-16T18:51:11.894Z,55.44
2023-04-16T18:53:38.799Z,54.90
2023-04-16T18:56:05.049Z,55.04
2023-04-16T18:58:31.300Z,55.54
2023-04-16T19:00:57.569Z,56.13
2023-04-16T19:03:23.856Z,55.80
2023-04-16T19:05:50.133Z,55.87
2023-04-16T19:08:16.396Z,55.74
2023-04-16T19:10:42.664Z,56.12
2023-04-16T19:13:08.904Z,55.96
2023-04-16T19:15:35.169Z,56.03
2023-04-16T19:18:01.506Z,55.67
2023-04-16T19:20:27.853Z,55.60
2023-04-16T19:22:54.121Z,55.37
2023-04-16T19:25:20.396Z,55.61
2023-04-16T19:27:46.660Z,55.80
2023-04-16T19:30:12.941Z,55.94
2023-04-16T19:32:39.235Z,55.88
2023-04-16T19:35:05.534Z,55.75
2023-04-16T19:37:31.827Z,55.45
2023-04-16T19:39:58.102Z,55.92
2023-04-16T19:42:24.375Z,55.89
2023-04-16T19:44:50.621Z,55.98
2023-04-16T19:47:16.884Z,55.94
2023-04-16T19:49:43.225Z,55.88
2023-04-16T19:52:09.518Z,55.89
2023-04-16T19:54:35.778Z,55.96
2023-04-16T19:57:02.113Z,55.96
2023-04-16T19:59:28.470Z,55.81
2023-04-16T20:01:54.818Z,56.06
2023-04-16T20:04:21.173Z,56.27
2023-04-16T20:06:47.457Z,56.53
2023-04-16T20:09:13.809Z,56.50
2023-04-16T20:11:40.149Z,56.35
2023-04-16T20:14:06.415Z,56.16
2023-04-16T20:16:32.739Z,56.28
2023-04-16T20:18:59.798Z,56.14
2023-04-16T20:21:27.538Z,56.11
2023-04-16T20:23:53.809Z,56.71
2023-04-16T20:26:20.115Z,56.36
2023-04-16T20:28:46.444Z,56.48
2023-04-16T20:31:12.764Z,56.50
2023-04-16T20:33:39.032Z,56.46
2023-04-16T20:36:05.353Z,56.15
2023-04-16T20:38:31.625Z,56.59
2023-04-16T20:40:57.884Z,56.18
2023-04-16T20:43:24.160Z,56.94
2023-04-16T20:45:50.445Z,56.59
2023-04-16T20:48:16.834Z,56.55
2023-04-16T20:50:43.134Z,56.23
2023-04-16T20:53:09.383Z,56.06
2023-04-16T20:55:35.654Z,56.35
2023-04-16T20:58:01.952Z,56.56
2023-04-16T21:00:28.294Z,56.13
2023-04-16T21:02:54.659Z,56.55
2023-04-16T21:05:20.990Z,56.39
2023-04-16T21:07:48.304Z,56.66
2023-04-16T21:10:14.563Z,56.64
2023-04-16T21:12:40.819Z,56.43
2023-04-16T21:15:07.098Z,56.90
2023-04-16T21:17:33.375Z,56.53
2023-04-16T21:19:59.680Z,56.71
2023-04-16T21:22:25.970Z,56.73
2023-04-16T21:24:52.224Z,56.93
2023-04-16T21:27:18.548Z,57.17
2023-04-16T21:29:44.877Z,57.39
2023-04-16T21:32:11.176Z,58.19
2023-04-16T21:34:37.469Z,59.28
2023-04-16T21:37:03.857Z,59.56
2023-04-16T21:39:30.109Z,60.30
2023-04-16T21:41:56.379Z,59.42
2023-04-16T21:44:22.654Z,59.54
2023-04-16T21:46:48.980Z,60.15
2023-04-16T21:49:15.259Z,60.47
2023-04-16T21:51:41.524Z,60.99
2023-04-16T21:54:07.783Z,60.18
2023-04-16T21:56:34.042Z,60.37
2023-04-16T21:59:00.303Z,60.26
2023-04-16T22:01:26.613Z,59.84
2023-04-16T22:03:53.094Z,59.39
2023-04-16T22:06:19.495Z,59.19
2023-04-16T22:08:45.762Z,59.53
2023-04-16T22:11:12.008Z,59.13
2023-04-16T22:13:38.261Z,58.67
2023-04-16T22:16:04.692Z,58.39
2023-04-16T22:18:31.044Z,58.90
2023-04-16T22:20:57.283Z,58.57
2023-04-16T22:23:23.553Z,58.41
2023-04-16T22:25:49.850Z,58.31
2023-04-16T22:28:16.101Z,58.39
2023-04-16T22:30:42.377Z,58.46
2023-04-16T22:33:08.719Z,58.07
2023-04-16T22:35:35.082Z,57.60
2023-04-16T22:38:01.322Z,58.48
2023-04-16T22:40:27.623Z,58.38
2023-04-16T22:42:53.881Z,58.46
2023-04-16T22:45:20.129Z,58.18
2023-04-16T22:47:46.446Z,58.29
2023-04-16T22:50:12.725Z,58.39
2023-04-16T22:52:38.996Z,58.64
2023-04-16T22:55:05.242Z,58.34
2023-04-16T22:57:31.501Z,58.23
2023-04-16T22:59:57.763Z,58.46
2023-04-16T23:02:24.193Z,58.20
2023-04-16T23:04:50.541Z,58.60
2023-04-16T23:07:16.810Z,58.08
2023-04-16T23:09:43.082Z,58.94
2023-04-16T23:12:09.326Z,58.62
2023-04-16T23:14:35.608Z,58.66
2023-04-16T23:17:01.901Z,58.22
2023-04-16T23:19:28.186Z,58.22
2023-04-16T23:21:54.458Z,58.30
2023-04-16T23:24:20.730Z,58.46
2023-04-16T23:26:47.000Z,58.42
2023-04-16T23:29:13.469Z,58.92
2023-04-16T23:31:39.886Z,59.07
2023-04-16T23:34:06.171Z,58.87
2023-04-16T23:36:32.439Z,60.16
2023-04-16T23:38:58.683Z,60.15
2023-04-16T23:41:24.929Z,60.82
2023-04-16T23:43:51.274Z,60.79
2023-04-16T23:46:17.581Z,60.89
2023-04-16T23:48:43.862Z,60.77
2023-04-16T23:51:10.106Z,61.77
2023-04-16T23:53:36.375Z,60.99
2023-04-16T23:56:02.638Z,61.57
2023-04-16T23:58:28.897Z,62.55
